Observations
| Time | Sensor | AQI | SAQ | Temp °C | Hum % | Pres Pa | CO μg/m³ | H₂S μg/m³ | NO μg/m³ | NO₂ μg/m³ | O₃ μg/m³ | SO₂ μg/m³ | CO₂e PPM | VOC PPM | PM1 μg/m³ | PM2.5 μg/m³ | PM4 μg/m³ | PM10 μg/m³ | TPS µm |
|---|---|---|---|---|---|---|---|---|---|---|---|---|---|---|---|---|---|---|---|
| Thursday 13 August 2026 | |||||||||||||||||||
| 05:42 | Trim Patrick St | 2 | 20.8 | 77 | 38,460 | 0 | 2.95 | 1.47 | 15.59 | 21.9 | 3.8 | 7.14 | 9.63 | 10.59 | |||||
| 05:42 | Trim Market St | 2 | 21.3 | 74 | 36,880 | 0 | 0 | 1.29 | 6.12 | 39.27 | 0 | 3.56 | 5.27 | 8.13 | |||||
| 05:41 | Trim Patrick St | 2 | 20.8 | 77 | 38,460 | 0 | 6.61 | 1.52 | 11.66 | 29.2 | 4.79 | 7.14 | 9.63 | 10.59 | |||||
| 05:40 | Trim Patrick St | 2 | 20.8 | 77 | 38,460 | 0 | 4.24 | 1.43 | 20.27 | 23.32 | 3.28 | 6.29 | 10.35 | 11.38 | |||||
| 05:40 | Trim Market St | 2 | 21.3 | 74 | 37,480 | 0 | 0 | 1.24 | 16.06 | 43.56 | 0 | 3.56 | 4.8 | 7.53 | |||||
| 05:39 | Trim Patrick St | 2 | 20.8 | 77 | 38,460 | 0 | 0 | 1.45 | 5.08 | 30.16 | 4.49 | 5.43 | 9.63 | 10.59 | |||||
| 05:39 | Trim Market St | 2 | 21.3 | 74 | 38,060 | 0 | 0 | 1.19 | 5.68 | 37.31 | 0 | 3.56 | 4.32 | 6.93 | |||||
| 05:38 | Trim Patrick St | 2 | 20.8 | 77 | 38,460 | 0 | 0.24 | 1.46 | 7.68 | 29.14 | 4.14 | 6.29 | 8.22 | 9.04 | |||||
| 05:38 | Trim Market St | 2 | 21.3 | 74 | 38,247 | 0 | 0 | 1.23 | 2.56 | 36.61 | 0 | 2.14 | 3.84 | 6.32 | |||||
| 05:37 | Trim Patrick St | 2 | 20.8 | 77 | 38,460 | 0 | 1.82 | 1.57 | 5.01 | 32.23 | 4.64 | 4.57 | 8.94 | 9.83 | |||||
| 05:36 | Trim Patrick St | 2 | 20.8 | 77 | 38,460 | 0 | 0 | 1.59 | 12.09 | 25.55 | 3.94 | 6.29 | 9.64 | 10.6 | |||||
| 05:35 | Trim Market St | 2 | 21.4 | 74 | 37,843 | 0 | 0 | 1.35 | 2.42 | 39.94 | 0 | 2.85 | 3.84 | 6.93 | |||||
| 05:34 | Trim Patrick St | 2 | 20.8 | 77 | 38,460 | 0 | 2.77 | 1.56 | 15.64 | 25.63 | 3.95 | 4.57 | 8.26 | 9.08 | |||||
| 05:34 | Trim Market St | 2 | 21.4 | 74 | 37,821 | 0 | 0 | 1.36 | 7.17 | 38.78 | 0 | 2.14 | 3.84 | 6.93 | |||||
| 05:33 | Trim Patrick St | 2 | 20.8 | 77 | 38,460 | 0 | 0 | 1.56 | 4.68 | 29.32 | 4.21 | 7.14 | 10.35 | 11.38 | |||||
| 05:33 | Trim Market St | 2 | 21.3 | 74 | 37,883 | 0 | 0 | 1.35 | 6.48 | 41.25 | 0 | 1.43 | 3.36 | 6.32 | |||||
| 05:32 | Trim Patrick St | 2 | 20.8 | 77 | 38,460 | 0 | 1.47 | 1.48 | 12.1 | 25.08 | 3.86 | 4.57 | 8.93 | 9.83 | |||||
| 05:32 | Trim Market St | 2 | 21.4 | 74 | 37,892 | 0 | 0 | 1.39 | 2.59 | 41.22 | 0 | 2.85 | 3.83 | 6.32 | |||||
| 05:31 | Trim Patrick St | 2 | 20.8 | 77 | 38,460 | 0 | 1.03 | 1.67 | 8.39 | 31.03 | 4.55 | 5.43 | 8.93 | 9.83 | |||||
| 05:31 | Trim Market St | 2 | 21.4 | 74 | 37,829 | 0 | 0 | 1.45 | 2.26 | 39.52 | 0 | 2.85 | 4.8 | 7.53 | |||||